createdAt,value
2019-05-29T05:11:57.847Z,6.95
2019-05-29T05:21:57.782Z,7.14
2019-05-29T05:31:57.795Z,7.56
2019-05-29T05:41:59.945Z,8.29
2019-05-29T05:51:57.728Z,8.83
2019-05-29T06:01:57.907Z,9.31
2019-05-29T06:11:59.600Z,9.71
2019-05-29T06:22:00.082Z,9.74
2019-05-29T06:31:59.217Z,9.91
2019-05-29T06:42:00.223Z,10.20
2019-05-29T06:51:57.915Z,10.19
2019-05-29T07:01:57.808Z,10.71
2019-05-29T07:11:57.771Z,10.84
2019-05-29T07:21:57.754Z,10.40
2019-05-29T07:31:59.740Z,10.79
2019-05-29T07:41:57.347Z,11.24
2019-05-29T07:51:59.793Z,11.20
2019-05-29T08:01:59.756Z,11.53
2019-05-29T08:11:57.369Z,12.72
2019-05-29T08:21:59.587Z,11.95
2019-05-29T08:31:57.816Z,12.12
2019-05-29T08:42:21.394Z,12.68
2019-05-29T08:52:11.059Z,11.99
2019-05-29T09:01:57.819Z,11.50
2019-05-29T09:11:57.785Z,13.31
2019-05-29T09:21:57.799Z,12.87
2019-05-29T09:31:57.822Z,14.26
2019-05-29T09:41:57.540Z,13.32
2019-05-29T09:51:56.249Z,14.52
2019-05-29T10:02:00.352Z,14.17
2019-05-29T10:11:59.438Z,14.47
2019-05-29T10:21:58.336Z,13.89
2019-05-29T10:31:57.535Z,14.14
2019-05-29T10:41:57.559Z,13.81
2019-05-29T10:52:10.708Z,14.67
2019-05-29T11:01:56.826Z,15.63
2019-05-29T11:11:57.679Z,14.61
2019-05-29T11:22:04.611Z,16.03
2019-05-29T11:31:57.072Z,16.29
2019-05-29T11:41:57.100Z,15.14
2019-05-29T11:52:18.794Z,14.98
2019-05-29T12:01:57.375Z,15.87
2019-05-29T12:11:57.992Z,15.39
2019-05-29T12:21:58.352Z,16.04
2019-05-29T12:31:57.113Z,16.40
2019-05-29T12:41:57.595Z,15.72
2019-05-29T12:51:57.680Z,15.00
2019-05-29T13:01:58.452Z,15.15
2019-05-29T13:11:58.458Z,17.05
2019-05-29T13:21:57.375Z,16.01
2019-05-29T13:31:58.115Z,17.38
2019-05-29T13:41:58.606Z,17.09
2019-05-29T13:51:57.208Z,17.40
2019-05-29T14:01:58.429Z,16.75
2019-05-29T14:11:58.912Z,16.92
2019-05-29T14:21:57.326Z,17.40
2019-05-29T14:31:57.220Z,19.15
2019-05-29T14:41:57.905Z,18.23
2019-05-29T14:51:57.832Z,17.54
2019-05-29T15:01:57.293Z,17.10
2019-05-29T15:11:57.304Z,17.72
2019-05-29T15:21:57.456Z,16.49
2019-05-29T15:31:57.432Z,16.60
2019-05-29T15:41:57.385Z,16.63
2019-05-29T15:51:57.565Z,17.48
2019-05-29T16:01:57.386Z,18.24
2019-05-29T16:11:57.494Z,18.01
2019-05-29T16:21:57.866Z,17.14
2019-05-29T16:31:57.952Z,18.25
2019-05-29T16:41:57.863Z,17.75
2019-05-29T16:51:57.864Z,16.26
2019-05-29T17:01:57.430Z,16.30
2019-05-29T17:11:57.765Z,16.33
2019-05-29T17:21:57.808Z,15.95
2019-05-29T17:31:57.854Z,15.78
2019-05-29T17:41:57.835Z,15.92
2019-05-29T17:51:57.893Z,15.52
2019-05-29T18:01:57.998Z,15.01
2019-05-29T18:11:57.996Z,14.96
2019-05-29T18:21:57.900Z,14.89
2019-05-29T18:31:57.880Z,14.59
2019-05-29T18:41:57.837Z,13.83
2019-05-29T18:52:00.253Z,13.37
2019-05-29T19:01:59.832Z,12.93
